Rita Br — ICGN — position and weather

sailwx.info

Track history (hours):
 
Tides and Currents Weather Stations Pressure Air Temp Water Temp Dewpoint Dewpoint Depression Visibility Wind Speed Wind Dir Waves Ship Positions

Rita Br

Last reported at 2018-Jan-20 05:00 UTC. Time now 2018-Jan-20 05:21 UTC.
Position N 38°21' W 009°30'.

Length 135 m; draft 6.6 m.

Type: Cargo ship. MMSI: 247216300.

Date/timePositionNaut miles runAvg speedWind from/ knotsBaromVisibWave heightAir tempDewpointWater temp
2018-Jan-20 05:00N 38°21' W 009°30'611.2
2018-Jan-20 04:30N 38°26' W 009°28'510.9
2018-Jan-20 04:00N 38°31' W 009°26'510.7
2018-Jan-20 03:30N 38°36' W 009°24'5 9.8
2018-Jan-20 03:00N 38°40' W 009°19'4 7.4
2018-Jan-20 02:30N 38°41' W 009°15'4 7.6
2018-Jan-20 02:00N 38°42' W 009°10'4 8.0
2018-Jan-20 01:30N 38°44' W 009°06'0 0.1
2018-Jan-19 22:45N 38°44' W 009°06'0 0.0
2018-Jan-19 07:39N 38°44' W 009°06'0 0.0
2018-Jan-19 07:18N 38°44' W 009°06'0 0.0
2018-Jan-19 06:54N 38°44' W 009°06'0 0.5
2018-Jan-19 06:30N 38°44' W 009°06'3 6.2
2018-Jan-19 06:00N 38°42' W 009°09'4 7.0
2018-Jan-19 05:30N 38°41' W 009°14'3 5.3
2018-Jan-19 05:00N 38°41' W 009°17'1 1.4
2018-Jan-19 04:31N 38°41' W 009°18'2 4.3
2018-Jan-19 04:01N 38°39' W 009°20'2 4.9
2018-Jan-19 03:31N 38°38' W 009°22'2 4.6
2018-Jan-19 02:59N 38°35' W 009°23'4 8.0
2018-Jan-19 02:30N 38°31' W 009°23'4 8.8
2018-Jan-19 02:01N 38°27' W 009°23'4 8.4
2018-Jan-19 01:31N 38°23' W 009°23'4 8.3
2018-Jan-19 01:00N 38°19' W 009°22'4 7.6
2018-Jan-19 00:31N 38°15' W 009°23'4 7.9
2018-Jan-19 00:01N 38°11' W 009°23'4 8.0
2018-Jan-18 23:30N 38°07' W 009°23'4 8.3
2018-Jan-18 23:01N 38°03' W 009°23'4 7.6
2018-Jan-18 22:31N 37°59' W 009°23'4 7.7
2018-Jan-18 22:00N 37°55' W 009°23'4 7.8
2018-Jan-18 21:31N 37°51' W 009°23'4 7.9
2018-Jan-18 21:00N 37°47' W 009°23'3 7.1
2018-Jan-18 20:31N 37°44' W 009°23'4 7.5
2018-Jan-18 20:00N 37°40' W 009°23'4 7.5
2018-Jan-18 19:30N 37°36' W 009°23'4 7.6
2018-Jan-18 19:01N 37°33' W 009°23'4 7.8
2018-Jan-18 18:30N 37°29' W 009°23'31 8.2
2018-Jan-18 14:45N 36°58' W 009°21'2 8.3
2018-Jan-18 14:30N 36°56' W 009°20'8 8.2
2018-Jan-18 13:33N 36°49' W 009°15'1 9.0
2018-Jan-18 13:27N 36°48' W 009°15'4 8.6
2018-Jan-18 13:00N 36°46' W 009°11'  
2018-Jan-11 22:24N 35°38' W 006°11'2010.5
2018-Jan-11 20:32N 35°55' W 005°58'0 4.7
2018-Jan-11 20:30N 35°55' W 005°58'5 9.3
2018-Jan-11 20:00N 35°57' W 005°52'710.4
2018-Jan-11 19:22N 35°57' W 005°44'410.0
2018-Jan-11 19:00N 35°57' W 005°40'4 8.5
2018-Jan-11 18:30N 35°58' W 005°35'4 8.6
2018-Jan-11 18:00N 35°59' W 005°30'4 7.3
2018-Jan-11 17:30N 36°00' W 005°26'3 7.0
2018-Jan-11 17:00N 36°02' W 005°21'3 6.9
2018-Jan-11 16:30N 36°02' W 005°17'4 7.1
2018-Jan-11 16:00N 36°04' W 005°13'5 8.8
2018-Jan-11 15:29N 36°05' W 005°08'5 9.4
2018-Jan-11 14:57N 36°06' W 005°02'4 9.3
2018-Jan-11 14:30N 36°06' W 004°57'13 8.8
2018-Jan-11 13:05N 36°09' W 004°42'110.5
2018-Jan-11 12:59N 36°10' W 004°40'4 8.8
2018-Jan-11 12:31N 36°11' W 004°35'5 9.1
2018-Jan-11 11:59N 36°12' W 004°30'  
Track history (hours):
 
Tides and Currents Weather Stations Pressure Air Temp Water Temp Dewpoint Dewpoint Depression Visibility Wind Speed Wind Dir Waves Ship Positions

Rita Br

Last reported at 2018-Jan-20 05:00 UTC. Time now 2018-Jan-20 05:21 UTC.
Position N 38°21' W 009°30'.

Length 135 m; draft 6.6 m.

Type: Cargo ship. MMSI: 247216300.

Date/timePositionNaut miles runAvg speedWind from/ knotsBaromVisibWave heightAir tempDewpointWater temp
2018-Jan-20 05:00N 38°21' W 009°30'611.2
2018-Jan-20 04:30N 38°26' W 009°28'510.9
2018-Jan-20 04:00N 38°31' W 009°26'510.7
2018-Jan-20 03:30N 38°36' W 009°24'5 9.8
2018-Jan-20 03:00N 38°40' W 009°19'4 7.4
2018-Jan-20 02:30N 38°41' W 009°15'4 7.6
2018-Jan-20 02:00N 38°42' W 009°10'4 8.0
2018-Jan-20 01:30N 38°44' W 009°06'0 0.1
2018-Jan-19 22:45N 38°44' W 009°06'0 0.0
2018-Jan-19 07:39N 38°44' W 009°06'0 0.0
2018-Jan-19 07:18N 38°44' W 009°06'0 0.0
2018-Jan-19 06:54N 38°44' W 009°06'0 0.5
2018-Jan-19 06:30N 38°44' W 009°06'3 6.2
2018-Jan-19 06:00N 38°42' W 009°09'4 7.0
2018-Jan-19 05:30N 38°41' W 009°14'3 5.3
2018-Jan-19 05:00N 38°41' W 009°17'1 1.4
2018-Jan-19 04:31N 38°41' W 009°18'2 4.3
2018-Jan-19 04:01N 38°39' W 009°20'2 4.9
2018-Jan-19 03:31N 38°38' W 009°22'2 4.6
2018-Jan-19 02:59N 38°35' W 009°23'4 8.0
2018-Jan-19 02:30N 38°31' W 009°23'4 8.8
2018-Jan-19 02:01N 38°27' W 009°23'4 8.4
2018-Jan-19 01:31N 38°23' W 009°23'4 8.3
2018-Jan-19 01:00N 38°19' W 009°22'4 7.6
2018-Jan-19 00:31N 38°15' W 009°23'4 7.9
2018-Jan-19 00:01N 38°11' W 009°23'4 8.0
2018-Jan-18 23:30N 38°07' W 009°23'4 8.3
2018-Jan-18 23:01N 38°03' W 009°23'4 7.6
2018-Jan-18 22:31N 37°59' W 009°23'4 7.7
2018-Jan-18 22:00N 37°55' W 009°23'4 7.8
2018-Jan-18 21:31N 37°51' W 009°23'4 7.9
2018-Jan-18 21:00N 37°47' W 009°23'3 7.1
2018-Jan-18 20:31N 37°44' W 009°23'4 7.5
2018-Jan-18 20:00N 37°40' W 009°23'4 7.5
2018-Jan-18 19:30N 37°36' W 009°23'4 7.6
2018-Jan-18 19:01N 37°33' W 009°23'4 7.8
2018-Jan-18 18:30N 37°29' W 009°23'31 8.2
2018-Jan-18 14:45N 36°58' W 009°21'2 8.3
2018-Jan-18 14:30N 36°56' W 009°20'8 8.2
2018-Jan-18 13:33N 36°49' W 009°15'1 9.0
2018-Jan-18 13:27N 36°48' W 009°15'4 8.6
2018-Jan-18 13:00N 36°46' W 009°11'  
2018-Jan-11 22:24N 35°38' W 006°11'2010.5
2018-Jan-11 20:32N 35°55' W 005°58'0 4.7
2018-Jan-11 20:30N 35°55' W 005°58'5 9.3
2018-Jan-11 20:00N 35°57' W 005°52'710.4
2018-Jan-11 19:22N 35°57' W 005°44'410.0
2018-Jan-11 19:00N 35°57' W 005°40'4 8.5
2018-Jan-11 18:30N 35°58' W 005°35'4 8.6
2018-Jan-11 18:00N 35°59' W 005°30'4 7.3
2018-Jan-11 17:30N 36°00' W 005°26'3 7.0
2018-Jan-11 17:00N 36°02' W 005°21'3 6.9
2018-Jan-11 16:30N 36°02' W 005°17'4 7.1
2018-Jan-11 16:00N 36°04' W 005°13'5 8.8
2018-Jan-11 15:29N 36°05' W 005°08'5 9.4
2018-Jan-11 14:57N 36°06' W 005°02'4 9.3
2018-Jan-11 14:30N 36°06' W 004°57'13 8.8
2018-Jan-11 13:05N 36°09' W 004°42'110.5
2018-Jan-11 12:59N 36°10' W 004°40'4 8.8
2018-Jan-11 12:31N 36°11' W 004°35'5 9.1
2018-Jan-11 11:59N 36°12' W 004°30'  

Dump ship's entire track history